sensor_id;sensor_type;location;lat;lon;timestamp;pressure;altitude;pressure_sealevel;temperature;humidity
85197;BME280;75566;42.698;23.346;2024-02-14T00:01:31;95233.56;;;5.53;70.65
85197;BME280;75566;42.698;23.346;2024-02-14T00:03:56;95235.81;;;5.49;69.90
85197;BME280;75566;42.698;23.346;2024-02-14T00:06:22;95233.84;;;5.49;70.04
85197;BME280;75566;42.698;23.346;2024-02-14T00:08:49;95240.53;;;5.48;70.51
85197;BME280;75566;42.698;23.346;2024-02-14T00:11:14;95241.53;;;5.45;70.39
85197;BME280;75566;42.698;23.346;2024-02-14T00:13:40;95241.47;;;5.51;69.24
85197;BME280;75566;42.698;23.346;2024-02-14T00:16:05;95245.25;;;5.42;70.31
85197;BME280;75566;42.698;23.346;2024-02-14T00:18:32;95247.88;;;5.54;69.64
85197;BME280;75566;42.698;23.346;2024-02-14T00:20:57;95240.97;;;5.53;70.40
85197;BME280;75566;42.698;23.346;2024-02-14T00:23:23;95254.25;;;5.56;69.18
85197;BME280;75566;42.698;23.346;2024-02-14T00:25:48;95262.69;;;5.53;69.19
85197;BME280;75566;42.698;23.346;2024-02-14T00:28:14;95249.84;;;5.53;69.59
85197;BME280;75566;42.698;23.346;2024-02-14T00:30:39;95258.03;;;5.47;69.96
85197;BME280;75566;42.698;23.346;2024-02-14T00:33:05;95255.28;;;5.53;69.46
85197;BME280;75566;42.698;23.346;2024-02-14T00:35:30;95257.25;;;5.53;69.49
85197;BME280;75566;42.698;23.346;2024-02-14T00:37:56;95262.69;;;5.53;69.85
85197;BME280;75566;42.698;23.346;2024-02-14T00:40:21;95267.34;;;5.52;70.07
85197;BME280;75566;42.698;23.346;2024-02-14T00:42:48;95261.53;;;5.42;69.69
85197;BME280;75566;42.698;23.346;2024-02-14T00:45:13;95255.53;;;5.49;70.13
85197;BME280;75566;42.698;23.346;2024-02-14T00:47:39;95267.59;;;5.54;69.80
85197;BME280;75566;42.698;23.346;2024-02-14T00:50:05;95266.78;;;5.65;69.36
85197;BME280;75566;42.698;23.346;2024-02-14T00:52:30;95262.56;;;5.64;68.99
85197;BME280;75566;42.698;23.346;2024-02-14T00:54:56;95254.25;;;5.56;69.63
85197;BME280;75566;42.698;23.346;2024-02-14T00:57:22;95265.56;;;5.60;69.62
85197;BME280;75566;42.698;23.346;2024-02-14T00:59:52;95265.91;;;5.51;69.09
85197;BME280;75566;42.698;23.346;2024-02-14T01:02:17;95255.53;;;5.49;69.56
85197;BME280;75566;42.698;23.346;2024-02-14T01:04:43;95257.34;;;5.41;69.91
85197;BME280;75566;42.698;23.346;2024-02-14T01:07:09;95266.16;;;5.47;70.19
85197;BME280;75566;42.698;23.346;2024-02-14T01:09:34;95263.16;;;5.57;69.36
85197;BME280;75566;42.698;23.346;2024-02-14T01:12:01;95270.06;;;5.52;69.08
85197;BME280;75566;42.698;23.346;2024-02-14T01:14:27;95265.09;;;5.56;70.03
85197;BME280;75566;42.698;23.346;2024-02-14T01:16:52;95269.16;;;5.44;69.48
85197;BME280;75566;42.698;23.346;2024-02-14T01:19:19;95264.94;;;5.48;69.89
85197;BME280;75566;42.698;23.346;2024-02-14T01:21:45;95263.69;;;5.49;69.29
85197;BME280;75566;42.698;23.346;2024-02-14T01:24:14;95273.53;;;5.53;69.56
85197;BME280;75566;42.698;23.346;2024-02-14T01:26:39;95266.75;;;5.35;69.78
85197;BME280;75566;42.698;23.346;2024-02-14T01:29:06;95253.41;;;5.42;69.39
85197;BME280;75566;42.698;23.346;2024-02-14T01:31:32;95259.78;;;5.45;69.52
85197;BME280;75566;42.698;23.346;2024-02-14T01:33:58;95261.19;;;5.52;70.04
85197;BME280;75566;42.698;23.346;2024-02-14T01:36:24;95262.16;;;5.54;69.09
85197;BME280;75566;42.698;23.346;2024-02-14T01:38:50;95258.94;;;5.56;68.62
85197;BME280;75566;42.698;23.346;2024-02-14T01:41:15;95257.19;;;5.58;69.21
85197;BME280;75566;42.698;23.346;2024-02-14T01:43:40;95261.16;;;5.57;68.83
85197;BME280;75566;42.698;23.346;2024-02-14T01:46:06;95261.44;;;5.54;68.13
85197;BME280;75566;42.698;23.346;2024-02-14T01:48:34;95256.78;;;5.48;69.49
85197;BME280;75566;42.698;23.346;2024-02-14T01:51:00;95260.50;;;5.45;68.65
85197;BME280;75566;42.698;23.346;2024-02-14T01:53:26;95265.16;;;5.51;68.36
85197;BME280;75566;42.698;23.346;2024-02-14T01:55:56;95260.69;;;5.53;67.70
85197;BME280;75566;42.698;23.346;2024-02-14T01:58:22;95264.00;;;5.40;68.67
85197;BME280;75566;42.698;23.346;2024-02-14T02:00:48;95263.78;;;5.38;68.58
85197;BME280;75566;42.698;23.346;2024-02-14T02:03:14;95257.34;;;5.41;69.00
85197;BME280;75566;42.698;23.346;2024-02-14T02:05:41;95258.59;;;5.40;68.93
85197;BME280;75566;42.698;23.346;2024-02-14T02:08:08;95261.47;;;5.48;69.76
85197;BME280;75566;42.698;23.346;2024-02-14T02:10:35;95264.25;;;5.42;68.87
85197;BME280;75566;42.698;23.346;2024-02-14T02:13:01;95265.19;;;5.45;69.55
85197;BME280;75566;42.698;23.346;2024-02-14T02:15:26;95272.38;;;5.42;68.63
85197;BME280;75566;42.698;23.346;2024-02-14T02:17:54;95269.66;;;5.42;68.73
85197;BME280;75566;42.698;23.346;2024-02-14T02:20:19;95267.13;;;5.50;69.07
85197;BME280;75566;42.698;23.346;2024-02-14T02:22:48;95282.66;;;5.49;68.20
85197;BME280;75566;42.698;23.346;2024-02-14T02:25:14;95273.38;;;5.39;68.26
85197;BME280;75566;42.698;23.346;2024-02-14T02:27:40;95274.38;;;5.42;68.45
85197;BME280;75566;42.698;23.346;2024-02-14T02:30:06;95279.72;;;5.47;68.54
85197;BME280;75566;42.698;23.346;2024-02-14T02:32:33;95289.38;;;5.43;69.02
85197;BME280;75566;42.698;23.346;2024-02-14T02:34:59;95279.50;;;5.45;67.80
85197;BME280;75566;42.698;23.346;2024-02-14T02:37:27;95281.72;;;5.47;68.51
85197;BME280;75566;42.698;23.346;2024-02-14T02:39:56;95291.16;;;5.35;68.19
85197;BME280;75566;42.698;23.346;2024-02-14T02:42:21;95293.16;;;5.34;67.68
85197;BME280;75566;42.698;23.346;2024-02-14T02:44:49;95284.75;;;5.38;68.51
85197;BME280;75566;42.698;23.346;2024-02-14T02:47:14;95297.72;;;5.51;68.13
85197;BME280;75566;42.698;23.346;2024-02-14T02:49:42;95297.75;;;5.45;67.69
85197;BME280;75566;42.698;23.346;2024-02-14T02:52:10;95305.69;;;5.37;67.89
85197;BME280;75566;42.698;23.346;2024-02-14T02:54:36;95305.63;;;5.48;68.39
85197;BME280;75566;42.698;23.346;2024-02-14T02:57:01;95313.00;;;5.48;68.65
85197;BME280;75566;42.698;23.346;2024-02-14T02:59:30;95299.66;;;5.56;68.02
85197;BME280;75566;42.698;23.346;2024-02-14T03:01:55;95312.50;;;5.49;67.73
85197;BME280;75566;42.698;23.346;2024-02-14T03:04:23;95308.13;;;5.46;68.55
85197;BME280;75566;42.698;23.346;2024-02-14T03:06:49;95312.88;;;5.35;68.72
85197;BME280;75566;42.698;23.346;2024-02-14T03:09:14;95316.03;;;5.39;67.35
85197;BME280;75566;42.698;23.346;2024-02-14T03:11:40;95316.78;;;5.39;68.01
85197;BME280;75566;42.698;23.346;2024-02-14T03:14:06;95313.81;;;5.43;68.01
85197;BME280;75566;42.698;23.346;2024-02-14T03:16:33;95323.94;;;5.37;68.58
85197;BME280;75566;42.698;23.346;2024-02-14T03:18:59;95329.16;;;5.35;67.29
85197;BME280;75566;42.698;23.346;2024-02-14T03:21:24;95329.38;;;5.37;67.61
85197;BME280;75566;42.698;23.346;2024-02-14T03:23:50;95337.03;;;5.33;68.39
85197;BME280;75566;42.698;23.346;2024-02-14T03:26:16;95335.75;;;5.39;67.24
85197;BME280;75566;42.698;23.346;2024-02-14T03:28:41;95341.63;;;5.49;67.36
85197;BME280;75566;42.698;23.346;2024-02-14T03:31:06;95348.75;;;5.52;67.26
85197;BME280;75566;42.698;23.346;2024-02-14T03:33:32;95357.69;;;5.41;67.64
85197;BME280;75566;42.698;23.346;2024-02-14T03:35:57;95348.09;;;5.40;67.90
85197;BME280;75566;42.698;23.346;2024-02-14T03:38:26;95355.50;;;5.40;67.28
85197;BME280;75566;42.698;23.346;2024-02-14T03:40:52;95354.50;;;5.43;67.75
85197;BME280;75566;42.698;23.346;2024-02-14T03:43:17;95362.94;;;5.34;67.29
85197;BME280;75566;42.698;23.346;2024-02-14T03:45:43;95363.19;;;5.36;67.32
85197;BME280;75566;42.698;23.346;2024-02-14T03:48:09;95360.97;;;5.34;68.22
85197;BME280;75566;42.698;23.346;2024-02-14T03:50:40;95369.94;;;5.54;67.81
85197;BME280;75566;42.698;23.346;2024-02-14T03:53:08;95358.59;;;5.55;66.07
85197;BME280;75566;42.698;23.346;2024-02-14T03:55:36;95369.06;;;5.40;67.05
85197;BME280;75566;42.698;23.346;2024-02-14T03:58:02;95357.44;;;5.45;67.02
85197;BME280;75566;42.698;23.346;2024-02-14T04:00:29;95354.16;;;5.52;67.59
85197;BME280;75566;42.698;23.346;2024-02-14T04:02:55;95362.19;;;5.33;67.06
85197;BME280;75566;42.698;23.346;2024-02-14T04:05:27;95358.28;;;5.28;66.79
85197;BME280;75566;42.698;23.346;2024-02-14T04:07:53;95368.16;;;5.26;67.77
85197;BME280;75566;42.698;23.346;2024-02-14T04:10:20;95368.59;;;5.36;67.44
85197;BME280;75566;42.698;23.346;2024-02-14T04:12:46;95367.59;;;5.33;67.33
85197;BME280;75566;42.698;23.346;2024-02-14T04:15:11;95371.34;;;5.30;67.30
85197;BME280;75566;42.698;23.346;2024-02-14T04:17:38;95379.97;;;5.28;66.59
85197;BME280;75566;42.698;23.346;2024-02-14T04:20:04;95380.94;;;5.31;66.86
85197;BME280;75566;42.698;23.346;2024-02-14T04:22:30;95381.72;;;5.26;67.40
85197;BME280;75566;42.698;23.346;2024-02-14T04:24:56;95372.31;;;5.27;67.28
85197;BME280;75566;42.698;23.346;2024-02-14T04:27:21;95372.31;;;5.27;67.08
85197;BME280;75566;42.698;23.346;2024-02-14T04:29:47;95379.25;;;5.28;66.96
85197;BME280;75566;42.698;23.346;2024-02-14T04:32:13;95391.31;;;5.27;67.94
85197;BME280;75566;42.698;23.346;2024-02-14T04:34:39;95393.28;;;5.26;67.31
85197;BME280;75566;42.698;23.346;2024-02-14T04:37:05;95392.09;;;5.16;68.19
85197;BME280;75566;42.698;23.346;2024-02-14T04:39:37;95408.13;;;5.14;67.32
85197;BME280;75566;42.698;23.346;2024-02-14T04:42:03;95406.22;;;5.09;68.38
85197;BME280;75566;42.698;23.346;2024-02-14T04:44:30;95400.28;;;5.11;67.36
85197;BME280;75566;42.698;23.346;2024-02-14T04:46:57;95406.22;;;5.09;68.55
85197;BME280;75566;42.698;23.346;2024-02-14T04:49:24;95400.06;;;5.03;67.55
85197;BME280;75566;42.698;23.346;2024-02-14T04:51:51;95404.47;;;5.12;68.06
85197;BME280;75566;42.698;23.346;2024-02-14T04:54:16;95409.09;;;5.22;68.18
85197;BME280;75566;42.698;23.346;2024-02-14T04:56:42;95410.81;;;5.25;68.32
85197;BME280;75566;42.698;23.346;2024-02-14T04:59:11;95409.31;;;5.24;67.31
85197;BME280;75566;42.698;23.346;2024-02-14T05:01:37;95424.16;;;5.18;67.70
85197;BME280;75566;42.698;23.346;2024-02-14T05:04:03;95422.41;;;5.20;67.71
85197;BME280;75566;42.698;23.346;2024-02-14T05:06:29;95415.53;;;5.19;67.79
85197;BME280;75566;42.698;23.346;2024-02-14T05:08:55;95423.19;;;5.15;67.75
85197;BME280;75566;42.698;23.346;2024-02-14T05:11:20;95430.84;;;5.11;67.76
85197;BME280;75566;42.698;23.346;2024-02-14T05:13:46;95432.13;;;4.99;68.18
85197;BME280;75566;42.698;23.346;2024-02-14T05:16:12;95434.28;;;5.17;67.69
85197;BME280;75566;42.698;23.346;2024-02-14T05:18:38;95439.72;;;5.12;68.25
85197;BME280;75566;42.698;23.346;2024-02-14T05:21:07;95449.13;;;4.99;68.41
85197;BME280;75566;42.698;23.346;2024-02-14T05:23:33;95449.59;;;5.03;67.47
85197;BME280;75566;42.698;23.346;2024-02-14T05:26:00;95453.31;;;5.00;67.80
85197;BME280;75566;42.698;23.346;2024-02-14T05:28:27;95458.44;;;5.09;68.25
85197;BME280;75566;42.698;23.346;2024-02-14T05:30:53;95456.00;;;5.06;68.99
85197;BME280;75566;42.698;23.346;2024-02-14T05:33:19;95461.41;;;5.12;67.81
85197;BME280;75566;42.698;23.346;2024-02-14T05:35:48;95471.53;;;5.05;68.29
85197;BME280;75566;42.698;23.346;2024-02-14T05:38:13;95467.84;;;4.97;68.87
85197;BME280;75566;42.698;23.346;2024-02-14T05:40:39;95471.81;;;5.02;68.56
85197;BME280;75566;42.698;23.346;2024-02-14T05:43:05;95482.09;;;5.15;67.81
85197;BME280;75566;42.698;23.346;2024-02-14T05:45:32;95486.03;;;5.19;68.37
85197;BME280;75566;42.698;23.346;2024-02-14T05:47:58;95485.06;;;5.11;67.04
85197;BME280;75566;42.698;23.346;2024-02-14T05:50:23;95486.03;;;5.14;67.05
85197;BME280;75566;42.698;23.346;2024-02-14T05:52:49;95489.25;;;5.12;68.47
85197;BME280;75566;42.698;23.346;2024-02-14T05:55:14;95505.53;;;5.06;67.78
85197;BME280;75566;42.698;23.346;2024-02-14T05:57:40;95505.81;;;4.97;67.98
85197;BME280;75566;42.698;23.346;2024-02-14T06:00:06;95502.84;;;5.01;68.07
85197;BME280;75566;42.698;23.346;2024-02-14T06:02:34;95505.31;;;5.04;67.85
85197;BME280;75566;42.698;23.346;2024-02-14T06:05:00;95509.97;;;5.04;67.89
85197;BME280;75566;42.698;23.346;2024-02-14T06:07:25;95518.91;;;4.87;66.99
85197;BME280;75566;42.698;23.346;2024-02-14T06:09:50;95521.84;;;4.84;67.07
85197;BME280;75566;42.698;23.346;2024-02-14T06:12:16;95518.41;;;4.78;68.25
85197;BME280;75566;42.698;23.346;2024-02-14T06:14:41;95529.75;;;4.76;67.83
85197;BME280;75566;42.698;23.346;2024-02-14T06:17:07;95519.38;;;4.80;67.11
85197;BME280;75566;42.698;23.346;2024-02-14T06:19:32;95521.84;;;4.78;67.63
85197;BME280;75566;42.698;23.346;2024-02-14T06:22:00;95523.59;;;4.76;67.79
85197;BME280;75566;42.698;23.346;2024-02-14T06:24:25;95529.75;;;4.82;68.27
85197;BME280;75566;42.698;23.346;2024-02-14T06:26:51;95529.22;;;4.89;66.60
85197;BME280;75566;42.698;23.346;2024-02-14T06:29:16;95543.53;;;4.84;67.15
85197;BME280;75566;42.698;23.346;2024-02-14T06:31:42;95543.78;;;4.80;67.55
85197;BME280;75566;42.698;23.346;2024-02-14T06:34:08;95541.81;;;4.81;67.27
85197;BME280;75566;42.698;23.346;2024-02-14T06:36:33;95544.53;;;4.75;66.83
85197;BME280;75566;42.698;23.346;2024-02-14T06:38:59;95549.97;;;4.81;67.48
85197;BME280;75566;42.698;23.346;2024-02-14T06:41:24;95549.19;;;4.86;67.31
85197;BME280;75566;42.698;23.346;2024-02-14T06:43:50;95555.59;;;4.94;66.98
85197;BME280;75566;42.698;23.346;2024-02-14T06:46:15;95557.34;;;4.92;66.44
85197;BME280;75566;42.698;23.346;2024-02-14T06:48:41;95556.09;;;4.93;65.65
85197;BME280;75566;42.698;23.346;2024-02-14T06:51:07;95555.09;;;4.90;65.82
85197;BME280;75566;42.698;23.346;2024-02-14T06:53:33;95559.53;;;4.93;66.25
85197;BME280;75566;42.698;23.346;2024-02-14T06:55:58;95548.94;;;4.95;66.44
85197;BME280;75566;42.698;23.346;2024-02-14T06:58:24;95556.34;;;4.95;65.79
85197;BME280;75566;42.698;23.346;2024-02-14T07:00:49;95569.88;;;5.00;64.68
85197;BME280;75566;42.698;23.346;2024-02-14T07:03:15;95566.19;;;4.98;64.89
85197;BME280;75566;42.698;23.346;2024-02-14T07:05:41;95576.53;;;4.99;65.15
85197;BME280;75566;42.698;23.346;2024-02-14T07:08:07;95586.13;;;5.06;65.37
85197;BME280;75566;42.698;23.346;2024-02-14T07:10:32;95583.41;;;5.17;64.35
85197;BME280;75566;42.698;23.346;2024-02-14T07:12:58;95590.09;;;5.11;63.64
85197;BME280;75566;42.698;23.346;2024-02-14T07:15:24;95586.84;;;5.18;63.56
85197;BME280;75566;42.698;23.346;2024-02-14T07:17:54;95581.66;;;5.25;63.70
85197;BME280;75566;42.698;23.346;2024-02-14T07:20:20;95592.25;;;5.35;63.66
85197;BME280;75566;42.698;23.346;2024-02-14T07:22:46;95599.69;;;5.23;63.26
85197;BME280;75566;42.698;23.346;2024-02-14T07:25:13;95601.16;;;5.07;64.12
85197;BME280;75566;42.698;23.346;2024-02-14T07:27:39;95597.22;;;5.08;64.40
85197;BME280;75566;42.698;23.346;2024-02-14T07:30:05;95592.78;;;5.05;64.55
85197;BME280;75566;42.698;23.346;2024-02-14T07:32:31;95600.66;;;5.20;62.86
85197;BME280;75566;42.698;23.346;2024-02-14T07:34:56;95600.66;;;5.14;63.31
85197;BME280;75566;42.698;23.346;2024-02-14T07:37:22;95597.22;;;5.08;63.84
85197;BME280;75566;42.698;23.346;2024-02-14T07:39:47;95609.06;;;5.11;63.03
85197;BME280;75566;42.698;23.346;2024-02-14T07:42:13;95609.78;;;5.05;63.66
85197;BME280;75566;42.698;23.346;2024-02-14T07:44:39;95616.69;;;5.01;63.94
85197;BME280;75566;42.698;23.346;2024-02-14T07:47:04;95605.13;;;5.00;62.86
85197;BME280;75566;42.698;23.346;2024-02-14T07:49:30;95605.13;;;5.00;64.17
85197;BME280;75566;42.698;23.346;2024-02-14T07:51:56;95606.84;;;5.03;64.36
85197;BME280;75566;42.698;23.346;2024-02-14T07:54:21;95610.03;;;5.07;62.97
85197;BME280;75566;42.698;23.346;2024-02-14T07:56:47;95627.81;;;4.92;64.21
85197;BME280;75566;42.698;23.346;2024-02-14T07:59:12;95612.53;;;4.94;63.38
85197;BME280;75566;42.698;23.346;2024-02-14T08:01:38;95610.31;;;4.98;63.73
85197;BME280;75566;42.698;23.346;2024-02-14T08:04:04;95623.34;;;5.05;64.06
85197;BME280;75566;42.698;23.346;2024-02-14T08:06:30;95634.94;;;4.83;63.77
85197;BME280;75566;42.698;23.346;2024-02-14T08:08:55;95612.50;;;4.83;63.80
85197;BME280;75566;42.698;23.346;2024-02-14T08:11:27;95620.16;;;4.96;64.23
85197;BME280;75566;42.698;23.346;2024-02-14T08:13:52;95627.81;;;4.75;64.75
85197;BME280;75566;42.698;23.346;2024-02-14T08:16:18;95630.00;;;4.76;64.00
85197;BME280;75566;42.698;23.346;2024-02-14T08:18:43;95616.97;;;4.86;63.52
85197;BME280;75566;42.698;23.346;2024-02-14T08:21:13;95633.97;;;4.92;64.11
85197;BME280;75566;42.698;23.346;2024-02-14T08:23:39;95642.34;;;4.88;64.39
85197;BME280;75566;42.698;23.346;2024-02-14T08:26:06;95645.53;;;4.87;64.43
85197;BME280;75566;42.698;23.346;2024-02-14T08:28:36;95648.72;;;4.91;62.97
85197;BME280;75566;42.698;23.346;2024-02-14T08:31:02;95642.09;;;4.92;64.00
85197;BME280;75566;42.698;23.346;2024-02-14T08:33:28;95638.88;;;4.88;63.58
85197;BME280;75566;42.698;23.346;2024-02-14T08:35:53;95640.59;;;4.97;63.80
85197;BME280;75566;42.698;23.346;2024-02-14T08:38:22;95636.44;;;4.79;62.97
85197;BME280;75566;42.698;23.346;2024-02-14T08:40:48;95650.44;;;4.83;64.02
85197;BME280;75566;42.698;23.346;2024-02-14T08:43:14;95650.94;;;4.76;63.12
85197;BME280;75566;42.698;23.346;2024-02-14T08:45:39;95649.72;;;4.82;63.60
85197;BME280;75566;42.698;23.346;2024-02-14T08:48:06;95655.16;;;4.88;62.90
85197;BME280;75566;42.698;23.346;2024-02-14T08:50:32;95658.84;;;4.85;62.34
85197;BME280;75566;42.698;23.346;2024-02-14T08:52:58;95659.56;;;4.74;63.69
85197;BME280;75566;42.698;23.346;2024-02-14T08:55:23;95671.88;;;4.70;62.70
85197;BME280;75566;42.698;23.346;2024-02-14T08:57:48;95672.13;;;4.66;63.46
85197;BME280;75566;42.698;23.346;2024-02-14T09:00:14;95665.72;;;4.69;63.80
85197;BME280;75566;42.698;23.346;2024-02-14T09:02:44;95676.81;;;4.65;62.56
85197;BME280;75566;42.698;23.346;2024-02-14T09:05:10;95679.28;;;4.69;62.79
85197;BME280;75566;42.698;23.346;2024-02-14T09:07:35;95673.13;;;4.80;62.46
85197;BME280;75566;42.698;23.346;2024-02-14T09:10:02;95674.84;;;4.88;62.40
85197;BME280;75566;42.698;23.346;2024-02-14T09:12:27;95679.78;;;4.90;62.80
85197;BME280;75566;42.698;23.346;2024-02-14T09:14:53;95684.47;;;4.90;63.30
85197;BME280;75566;42.698;23.346;2024-02-14T09:17:18;95686.94;;;4.93;62.88
85197;BME280;75566;42.698;23.346;2024-02-14T09:19:44;95676.06;;;4.76;61.92
85197;BME280;75566;42.698;23.346;2024-02-14T09:22:09;95688.91;;;4.87;62.04
85197;BME280;75566;42.698;23.346;2024-02-14T09:24:35;95685.22;;;4.90;61.92
85197;BME280;75566;42.698;23.346;2024-02-14T09:27:00;95695.31;;;4.90;62.16
85197;BME280;75566;42.698;23.346;2024-02-14T09:29:28;95690.41;;;5.11;61.93
85197;BME280;75566;42.698;23.346;2024-02-14T09:31:53;95693.84;;;5.00;61.29
85197;BME280;75566;42.698;23.346;2024-02-14T09:34:19;95695.31;;;4.95;62.66
85197;BME280;75566;42.698;23.346;2024-02-14T09:36:48;95689.41;;;5.02;61.56
85197;BME280;75566;42.698;23.346;2024-02-14T09:39:14;95688.19;;;4.98;61.26
85197;BME280;75566;42.698;23.346;2024-02-14T09:41:44;95687.44;;;4.97;61.96
85197;BME280;75566;42.698;23.346;2024-02-14T09:44:09;95690.38;;;4.99;62.80
85197;BME280;75566;42.698;23.346;2024-02-14T09:46:38;95690.88;;;4.92;62.28
85197;BME280;75566;42.698;23.346;2024-02-14T09:49:05;95686.19;;;4.93;62.12
85197;BME280;75566;42.698;23.346;2024-02-14T09:51:31;95692.38;;;5.16;62.26
85197;BME280;75566;42.698;23.346;2024-02-14T09:53:59;95694.84;;;5.14;61.69
85197;BME280;75566;42.698;23.346;2024-02-14T09:56:25;95688.41;;;4.88;61.73
85197;BME280;75566;42.698;23.346;2024-02-14T09:58:51;95682.75;;;4.75;61.81
85197;BME280;75566;42.698;23.346;2024-02-14T10:01:22;95686.44;;;4.83;62.75
85197;BME280;75566;42.698;23.346;2024-02-14T10:03:52;95684.72;;;4.86;61.89
85197;BME280;75566;42.698;23.346;2024-02-14T10:06:18;95683.22;;;4.85;61.88
85197;BME280;75566;42.698;23.346;2024-02-14T10:08:49;95687.19;;;4.84;60.69
85197;BME280;75566;42.698;23.346;2024-02-14T10:11:19;95692.09;;;4.80;61.05
85197;BME280;75566;42.698;23.346;2024-02-14T10:13:47;95695.53;;;4.80;61.28
85197;BME280;75566;42.698;23.346;2024-02-14T10:16:14;95690.88;;;4.86;62.68
85197;BME280;75566;42.698;23.346;2024-02-14T10:18:39;95693.84;;;4.88;62.09
85197;BME280;75566;42.698;23.346;2024-02-14T10:21:05;95686.94;;;4.87;62.33
85197;BME280;75566;42.698;23.346;2024-02-14T10:23:31;95690.91;;;4.98;62.44
85197;BME280;75566;42.698;23.346;2024-02-14T10:25:58;95684.47;;;5.01;61.88
85197;BME280;75566;42.698;23.346;2024-02-14T10:28:24;95689.16;;;5.06;60.59
85197;BME280;75566;42.698;23.346;2024-02-14T10:30:49;95677.59;;;5.00;59.91
85197;BME280;75566;42.698;23.346;2024-02-14T10:33:18;95681.03;;;5.06;60.51
85197;BME280;75566;42.698;23.346;2024-02-14T10:35:47;95679.31;;;5.03;60.82
85197;BME280;75566;42.698;23.346;2024-02-14T10:38:15;95676.09;;;5.16;59.65
85197;BME280;75566;42.698;23.346;2024-02-14T10:40:46;95690.88;;;5.26;59.81
85197;BME280;75566;42.698;23.346;2024-02-14T10:43:12;95677.31;;;5.20;59.70
85197;BME280;75566;42.698;23.346;2024-02-14T10:45:38;95673.16;;;5.25;59.70
85197;BME280;75566;42.698;23.346;2024-02-14T10:48:05;95677.09;;;5.13;59.19
85197;BME280;75566;42.698;23.346;2024-02-14T10:50:33;95671.41;;;5.22;58.90
85197;BME280;75566;42.698;23.346;2024-02-14T10:53:05;95673.88;;;5.25;59.13
85197;BME280;75566;42.698;23.346;2024-02-14T10:55:34;95683.50;;;5.21;58.74
85197;BME280;75566;42.698;23.346;2024-02-14T10:58:01;95688.16;;;5.20;58.86
85197;BME280;75566;42.698;23.346;2024-02-14T11:00:27;95684.47;;;5.12;60.35
85197;BME280;75566;42.698;23.346;2024-02-14T11:02:55;95688.94;;;5.21;59.19
85197;BME280;75566;42.698;23.346;2024-02-14T11:05:21;95689.19;;;5.23;59.15
85197;BME280;75566;42.698;23.346;2024-02-14T11:07:49;95681.75;;;5.35;58.40
85197;BME280;75566;42.698;23.346;2024-02-14T11:10:19;95685.72;;;5.34;58.90
85197;BME280;75566;42.698;23.346;2024-02-14T11:12:46;95691.13;;;5.28;58.68
85197;BME280;75566;42.698;23.346;2024-02-14T11:15:17;95684.22;;;5.27;59.32
85197;BME280;75566;42.698;23.346;2024-02-14T11:17:43;95684.72;;;5.25;59.35
85197;BME280;75566;42.698;23.346;2024-02-14T11:20:16;95689.16;;;5.17;59.87
85197;BME280;75566;42.698;23.346;2024-02-14T11:23:02;95671.66;;;5.18;59.25
85197;BME280;75566;42.698;23.346;2024-02-14T11:25:37;95679.53;;;5.16;59.37
85197;BME280;75566;42.698;23.346;2024-02-14T11:28:17;95689.19;;;5.23;59.17
85197;BME280;75566;42.698;23.346;2024-02-14T11:30:43;95680.03;;;5.09;59.44
85197;BME280;75566;42.698;23.346;2024-02-14T11:33:16;95678.06;;;5.09;59.63
85197;BME280;75566;42.698;23.346;2024-02-14T11:35:42;95673.13;;;5.14;60.26
85197;BME280;75566;42.698;23.346;2024-02-14T11:38:10;95684.97;;;5.16;59.53
85197;BME280;75566;42.698;23.346;2024-02-14T11:40:36;95683.25;;;5.13;59.07
85197;BME280;75566;42.698;23.346;2024-02-14T11:43:13;95672.91;;;5.23;59.12
85197;BME280;75566;42.698;23.346;2024-02-14T11:45:40;95674.88;;;5.34;59.59
85197;BME280;75566;42.698;23.346;2024-02-14T11:48:11;95675.59;;;5.28;58.50
85197;BME280;75566;42.698;23.346;2024-02-14T11:50:41;95674.38;;;5.29;59.73
85197;BME280;75566;42.698;23.346;2024-02-14T11:53:09;95672.88;;;5.28;58.64
85197;BME280;75566;42.698;23.346;2024-02-14T11:55:37;95669.94;;;5.32;58.86
85197;BME280;75566;42.698;23.346;2024-02-14T11:58:13;95677.09;;;5.29;58.78
85197;BME280;75566;42.698;23.346;2024-02-14T12:00:46;95676.56;;;5.37;58.76
85197;BME280;75566;42.698;23.346;2024-02-14T12:03:22;95666.00;;;5.27;59.21
85197;BME280;75566;42.698;23.346;2024-02-14T12:05:52;95666.22;;;5.41;58.11
85197;BME280;75566;42.698;23.346;2024-02-14T12:08:18;95670.41;;;5.42;58.35
85197;BME280;75566;42.698;23.346;2024-02-14T12:10:45;95669.16;;;5.43;58.82
85197;BME280;75566;42.698;23.346;2024-02-14T12:13:14;95675.56;;;5.57;58.06
85197;BME280;75566;42.698;23.346;2024-02-14T12:15:47;95665.19;;;5.61;58.74
85197;BME280;75566;42.698;23.346;2024-02-14T12:18:13;95676.53;;;5.48;58.06
85197;BME280;75566;42.698;23.346;2024-02-14T12:20:39;95666.41;;;5.60;57.64
85197;BME280;75566;42.698;23.346;2024-02-14T12:23:05;95665.41;;;5.74;57.86
85197;BME280;75566;42.698;23.346;2024-02-14T12:25:31;95662.16;;;5.81;57.59
85197;BME280;75566;42.698;23.346;2024-02-14T12:27:57;95660.44;;;5.84;57.00
85197;BME280;75566;42.698;23.346;2024-02-14T12:30:42;95661.00;;;5.54;57.37
85197;BME280;75566;42.698;23.346;2024-02-14T12:33:07;95659.28;;;5.57;57.09
85197;BME280;75566;42.698;23.346;2024-02-14T12:35:34;95661.47;;;5.69;57.37
85197;BME280;75566;42.698;23.346;2024-02-14T12:38:08;95662.22;;;5.70;57.22
85197;BME280;75566;42.698;23.346;2024-02-14T12:40:37;95662.94;;;5.70;57.15
85197;BME280;75566;42.698;23.346;2024-02-14T12:43:03;95664.69;;;5.62;57.00
85197;BME280;75566;42.698;23.346;2024-02-14T12:45:31;95658.72;;;5.75;56.93
85197;BME280;75566;42.698;23.346;2024-02-14T12:47:57;95662.44;;;5.78;56.99
85197;BME280;75566;42.698;23.346;2024-02-14T12:50:22;95664.88;;;5.87;56.97
85197;BME280;75566;42.698;23.346;2024-02-14T12:52:48;95660.16;;;5.93;55.97
85197;BME280;75566;42.698;23.346;2024-02-14T12:55:14;95662.38;;;6.00;56.85
85197;BME280;75566;42.698;23.346;2024-02-14T12:57:40;95670.00;;;6.07;56.39